Time,TemperatureF,DewpointF,PressureIn,WindDirection,WindDirectionDegrees,WindSpeedMPH,WindSpeedGustMPH,Humidity,HourlyPrecipIn,Conditions,Clouds,dailyrainin,SoftwareType,DateUTC
2013-05-01 00:09:00,61.7,44.9,28.27,NNE,22,0.0,2.0,54,0.00,CLR,,0.00,WeatherDisplay:10.37,2013-05-01 04:09:00,
2013-05-01 00:19:00,61.3,46.0,28.27,NE,36,2.0,4.0,57,0.00,CLR,,0.00,WeatherDisplay:10.37,2013-05-01 04:19:00,
2013-05-01 00:29:00,61.2,45.8,28.27,NE,42,1.0,2.0,57,0.00,CLR,,0.00,WeatherDisplay:10.37,2013-05-01 04:29:00,
2013-05-01 00:39:00,60.6,45.8,28.27,NNE,25,2.0,3.0,58,0.00,CLR,,0.00,WeatherDisplay:10.37,2013-05-01 04:39:00,
2013-05-01 00:49:00,60.4,46.0,28.27,NNE,27,2.0,4.0,59,0.00,CLR,,0.00,WeatherDisplay:10.37,2013-05-01 04:49:00,
2013-05-01 00:59:00,60.3,46.3,28.30,NNE,31,2.0,3.0,60,0.00,CLR,,0.00,WeatherDisplay:10.37,2013-05-01 04:59:00,
2013-05-01 01:09:00,60.0,46.9,28.30,NE,40,2.0,5.0,62,0.00,CLR,,0.00,WeatherDisplay:10.37,2013-05-01 05:09:00,
2013-05-01 01:19:00,59.9,46.8,28.27,NE,34,2.0,3.0,62,0.00,CLR,,0.00,WeatherDisplay:10.37,2013-05-01 05:19:00,
2013-05-01 01:29:00,59.8,46.7,28.27,NNE,25,2.0,3.0,62,0.00,CLR,,0.00,WeatherDisplay:10.37,2013-05-01 05:29:00,
2013-05-01 01:39:00,59.4,47.2,28.27,NE,35,2.0,4.0,64,0.00,CLR,,0.00,WeatherDisplay:10.37,2013-05-01 05:39:00,
2013-05-01 01:49:00,59.4,47.2,28.27,North,10,0.0,3.0,64,0.00,CLR,,0.00,WeatherDisplay:10.37,2013-05-01 05:49:00,
2013-05-01 01:59:00,58.5,46.3,28.27,North,359,1.0,2.0,64,0.00,CLR,,0.00,WeatherDisplay:10.37,2013-05-01 05:59:00,
2013-05-01 02:09:00,58.5,46.3,28.27,NNW,338,0.0,0.0,64,0.00,CLR,,0.00,WeatherDisplay:10.37,2013-05-01 06:09:00,
2013-05-01 02:19:00,57.6,47.1,28.27,NNW,344,0.0,1.0,68,0.00,CLR,,0.00,WeatherDisplay:10.37,2013-05-01 06:19:00,
2013-05-01 02:29:00,57.0,46.9,28.27,North,4,0.0,0.0,69,0.00,CLR,,0.00,WeatherDisplay:10.37,2013-05-01 06:29:00,
2013-05-01 02:39:00,56.7,46.6,28.27,WNW,299,0.0,3.0,69,0.00,CLR,,0.00,WeatherDisplay:10.37,2013-05-01 06:39:00,
2013-05-01 02:49:00,56.7,46.6,28.30,NNW,342,1.0,5.0,69,0.00,CLR,,0.00,WeatherDisplay:10.37,2013-05-01 06:49:00,
2013-05-01 02:59:00,56.3,46.6,28.27,West,278,0.0,0.0,70,0.00,CLR,,0.00,WeatherDisplay:10.37,2013-05-01 06:59:00,
2013-05-01 03:09:00,56.1,47.2,28.27,NNW,338,0.0,0.0,72,0.00,CLR,,0.00,WeatherDisplay:10.37,2013-05-01 07:09:00,
2013-05-01 03:19:00,55.9,47.8,28.27,NNW,341,0.0,0.0,74,0.00,CLR,,0.00,WeatherDisplay:10.37,2013-05-01 07:19:00,
2013-05-01 03:29:00,55.7,47.2,28.27,North,4,0.0,2.0,73,0.00,CLR,,0.00,WeatherDisplay:10.37,2013-05-01 07:29:00,
2013-05-01 03:39:00,55.6,48.5,28.27,North,6,1.0,2.0,77,0.00,CLR,,0.00,WeatherDisplay:10.37,2013-05-01 07:39:00,
2013-05-01 03:49:00,55.6,48.8,28.27,NNE,26,1.0,2.0,78,0.00,CLR,,0.00,WeatherDisplay:10.37,2013-05-01 07:49:00,
2013-05-01 03:59:00,55.8,49.0,28.27,NNE,14,1.0,5.0,78,0.00,CLR,,0.00,WeatherDisplay:10.37,2013-05-01 07:59:00,
2013-05-01 04:09:00,55.8,48.3,28.27,NNE,16,0.0,5.0,76,0.00,CLR,,0.00,WeatherDisplay:10.37,2013-05-01 08:09:00,
2013-05-01 04:19:00,55.9,48.8,28.27,NNE,17,2.0,5.0,77,0.00,CLR,,0.00,WeatherDisplay:10.37,2013-05-01 08:19:00,
2013-05-01 04:29:00,55.9,48.1,28.27,NNE,24,2.0,3.0,75,0.00,CLR,,0.00,WeatherDisplay:10.37,2013-05-01 08:29:00,
2013-05-01 04:39:00,56.3,48.1,28.27,NNE,17,2.0,4.0,74,0.00,CLR,,0.00,WeatherDisplay:10.37,2013-05-01 08:39:00,
2013-05-01 04:49:00,55.9,47.0,28.27,NNW,346,1.0,4.0,72,0.00,CLR,,0.00,WeatherDisplay:10.37,2013-05-01 08:49:00,
2013-05-01 04:59:00,55.9,47.0,28.27,NNW,336,2.0,3.0,72,0.00,CLR,,0.00,WeatherDisplay:10.37,2013-05-01 08:59:00,
2013-05-01 05:09:00,55.9,47.0,28.27,North,10,2.0,2.0,72,0.00,CLR,,0.00,WeatherDisplay:10.37,2013-05-01 09:09:00,
2013-05-01 05:19:00,55.6,46.7,28.30,NNE,30,2.0,4.0,72,0.00,CLR,,0.00,WeatherDisplay:10.37,2013-05-01 09:19:00,
2013-05-01 05:29:00,55.6,46.7,28.27,NNE,25,1.0,4.0,72,0.00,CLR,,0.00,WeatherDisplay:10.37,2013-05-01 09:29:00,
2013-05-01 05:39:00,55.4,46.5,28.27,NNE,28,1.0,1.0,72,0.00,CLR,,0.00,WeatherDisplay:10.37,2013-05-01 09:39:00,
2013-05-01 05:49:00,54.9,45.6,28.27,North,352,0.0,2.0,71,0.00,CLR,,0.00,WeatherDisplay:10.37,2013-05-01 09:49:00,
2013-05-01 05:59:00,54.7,45.8,28.27,NNE,14,2.0,3.0,72,0.00,CLR,,0.00,WeatherDisplay:10.37,2013-05-01 09:59:00,
2013-05-01 06:09:00,54.7,46.2,28.27,North,9,1.0,2.0,73,0.00,CLR,,0.00,WeatherDisplay:10.37,2013-05-01 10:09:00,
2013-05-01 06:19:00,54.3,46.2,28.30,NNE,14,2.0,3.0,74,0.00,CLR,,0.00,WeatherDisplay:10.37,2013-05-01 10:19:00,
2013-05-01 06:29:00,54.3,46.2,28.30,NNE,23,2.0,3.0,74,0.00,CLR,,0.00,WeatherDisplay:10.37,2013-05-01 10:29:00,
2013-05-01 06:39:00,54.7,48.0,28.30,NE,50,2.0,3.0,78,0.00,CLR,,0.00,WeatherDisplay:10.37,2013-05-01 10:39:00,
2013-05-01 06:49:00,55.0,47.6,28.30,NE,35,1.0,3.0,76,0.00,CLR,,0.00,WeatherDisplay:10.37,2013-05-01 10:49:00,
2013-05-01 06:59:00,55.4,47.2,28.33,NNE,25,2.0,5.0,74,0.00,CLR,,0.00,WeatherDisplay:10.37,2013-05-01 10:59:00,
2013-05-01 07:09:00,55.6,47.4,28.33,NNE,21,2.0,3.0,74,0.00,CLR,,0.00,WeatherDisplay:10.37,2013-05-01 11:09:00,
2013-05-01 07:19:00,56.2,47.3,28.30,NNE,23,2.0,5.0,72,0.00,CLR,,0.00,WeatherDisplay:10.37,2013-05-01 11:19:00,
2013-05-01 07:29:00,56.7,47.0,28.30,NNE,27,3.0,6.0,70,0.00,CLR,,0.00,WeatherDisplay:10.37,2013-05-01 11:29:00,
2013-05-01 07:39:00,56.9,46.8,28.30,NNE,25,3.0,5.0,69,0.00,CLR,,0.00,WeatherDisplay:10.37,2013-05-01 11:39:00,
2013-05-01 07:49:00,57.2,46.3,28.33,NNE,26,3.0,5.0,67,0.00,CLR,,0.00,WeatherDisplay:10.37,2013-05-01 11:49:00,
2013-05-01 07:59:00,57.7,45.2,28.33,NNE,22,3.0,5.0,63,0.00,CLR,,0.00,WeatherDisplay:10.37,2013-05-01 11:59:00,
2013-05-01 08:09:00,57.9,44.5,28.33,NE,36,2.0,4.0,61,0.00,CLR,,0.00,WeatherDisplay:10.37,2013-05-01 12:09:00,
2013-05-01 08:19:00,58.6,44.7,28.33,NNE,28,3.0,7.0,60,0.00,CLR,,0.00,WeatherDisplay:10.37,2013-05-01 12:19:00,
2013-05-01 08:29:00,59.4,44.1,28.33,NNE,15,5.0,6.0,57,0.00,CLR,,0.00,WeatherDisplay:10.37,2013-05-01 12:29:00,
2013-05-01 08:39:00,60.3,43.5,28.33,North,6,3.0,6.0,54,0.00,CLR,,0.00,WeatherDisplay:10.37,2013-05-01 12:39:00,
2013-05-01 08:49:00,60.8,42.5,28.33,NE,54,3.0,6.0,51,0.00,CLR,,0.00,WeatherDisplay:10.37,2013-05-01 12:49:00,
2013-05-01 08:59:00,61.0,41.7,28.33,NE,51,5.0,7.0,49,0.00,CLR,,0.00,WeatherDisplay:10.37,2013-05-01 12:59:00,
2013-05-01 09:09:00,61.6,40.6,28.33,East,79,5.0,6.0,46,0.00,CLR,,0.00,WeatherDisplay:10.37,2013-05-01 13:09:00,
2013-05-01 09:19:00,61.5,41.6,28.33,ENE,72,6.0,12.0,48,0.00,CLR,,0.00,WeatherDisplay:10.37,2013-05-01 13:19:00,
2013-05-01 09:29:00,61.9,41.4,28.33,NE,36,5.0,12.0,47,0.00,CLR,,0.00,WeatherDisplay:10.37,2013-05-01 13:29:00,
2013-05-01 09:39:00,62.2,41.2,28.33,NE,45,3.0,6.0,46,0.00,CLR,,0.00,WeatherDisplay:10.37,2013-05-01 13:39:00,
2013-05-01 09:49:00,62.4,41.4,28.33,NE,53,2.0,6.0,46,0.00,CLR,,0.00,WeatherDisplay:10.37,2013-05-01 13:49:00,
2013-05-01 09:59:00,63.5,42.3,28.33,NNE,30,3.0,5.0,46,0.00,CLR,,0.00,WeatherDisplay:10.37,2013-05-01 13:59:00,
2013-05-01 10:09:00,63.7,41.3,28.33,NNE,25,5.0,5.0,44,0.00,CLR,,0.00,WeatherDisplay:10.37,2013-05-01 14:09:00,
2013-05-01 10:19:00,63.9,41.5,28.36,North,3,3.0,4.0,44,0.00,CLR,,0.00,WeatherDisplay:10.37,2013-05-01 14:19:00,
2013-05-01 10:29:00,64.0,41.1,28.36,NE,46,2.0,5.0,43,0.00,CLR,,0.00,WeatherDisplay:10.37,2013-05-01 14:29:00,
2013-05-01 10:39:00,63.6,40.7,28.36,NE,34,5.0,6.0,43,0.00,CLR,,0.00,WeatherDisplay:10.37,2013-05-01 14:39:00,
2013-05-01 10:49:00,64.0,41.7,28.36,NE,48,5.0,6.0,44,0.00,CLR,,0.00,WeatherDisplay:10.37,2013-05-01 14:49:00,
2013-05-01 10:59:00,65.5,41.8,28.36,NE,39,2.0,5.0,42,0.00,CLR,,0.00,WeatherDisplay:10.37,2013-05-01 14:59:00,
2013-05-01 11:09:00,65.4,41.7,28.36,NE,56,1.0,5.0,42,0.00,CLR,,0.00,WeatherDisplay:10.37,2013-05-01 15:09:00,
2013-05-01 11:19:00,66.4,42.0,28.36,ENE,74,2.0,3.0,41,0.00,CLR,,0.00,WeatherDisplay:10.37,2013-05-01 15:19:00,
2013-05-01 11:29:00,66.6,41.5,28.39,NE,49,2.0,4.0,40,0.00,CLR,,0.00,WeatherDisplay:10.37,2013-05-01 15:29:00,
2013-05-01 11:39:00,67.1,39.9,28.39,NE,45,3.0,6.0,37,0.00,CLR,,0.00,WeatherDisplay:10.37,2013-05-01 15:39:00,
2013-05-01 11:49:00,67.6,40.4,28.36,NE,54,2.0,5.0,37,0.00,CLR,,0.00,WeatherDisplay:10.37,2013-05-01 15:49:00,
2013-05-01 11:59:00,67.6,40.4,28.36,ENE,63,2.0,7.0,37,0.00,CLR,,0.00,WeatherDisplay:10.37,2013-05-01 15:59:00,
2013-05-01 12:09:00,68.8,40.8,28.36,NE,54,3.0,4.0,36,0.00,CLR,,0.00,WeatherDisplay:10.37,2013-05-01 16:09:00,
2013-05-01 12:19:00,69.1,39.5,28.36,NE,37,3.0,8.0,34,0.00,CLR,,0.00,WeatherDisplay:10.37,2013-05-01 16:19:00,
2013-05-01 12:29:00,69.1,39.5,28.36,ENE,65,3.0,8.0,34,0.00,CLR,,0.00,WeatherDisplay:10.37,2013-05-01 16:29:00,
2013-05-01 12:39:00,69.4,39.8,28.36,NNE,31,3.0,6.0,34,0.00,CLR,,0.00,WeatherDisplay:10.37,2013-05-01 16:39:00,
2013-05-01 12:49:00,69.8,40.9,28.36,NNW,338,2.0,6.0,35,0.00,CLR,,0.00,WeatherDisplay:10.37,2013-05-01 16:49:00,
2013-05-01 12:59:00,69.8,40.2,28.36,North,6,2.0,4.0,34,0.00,CLR,,0.00,WeatherDisplay:10.37,2013-05-01 16:59:00,
2013-05-01 13:09:00,69.1,38.8,28.36,NE,46,5.0,6.0,33,0.00,CLR,,0.00,WeatherDisplay:10.37,2013-05-01 17:09:00,
2013-05-01 13:19:00,69.1,39.5,28.33,NE,37,3.0,6.0,34,0.00,CLR,,0.00,WeatherDisplay:10.37,2013-05-01 17:19:00,
2013-05-01 13:29:00,69.4,39.1,28.33,NE,37,3.0,5.0,33,0.00,CLR,,0.00,WeatherDisplay:10.37,2013-05-01 17:29:00,
2013-05-01 13:39:00,69.3,38.9,28.33,NE,40,3.0,7.0,33,0.00,CLR,,0.00,WeatherDisplay:10.37,2013-05-01 17:39:00,
2013-05-01 13:49:00,69.7,40.1,28.33,NNE,19,3.0,6.0,34,0.00,CLR,,0.00,WeatherDisplay:10.37,2013-05-01 17:49:00,
2013-05-01 13:59:00,70.5,40.0,28.33,NE,49,7.0,7.0,33,0.00,CLR,,0.00,WeatherDisplay:10.37,2013-05-01 17:59:00,
2013-05-01 14:09:00,70.5,39.2,28.33,NE,41,3.0,7.0,32,0.00,CLR,,0.00,WeatherDisplay:10.37,2013-05-01 18:09:00,
2013-05-01 14:19:00,70.0,38.0,28.33,ENE,61,3.0,5.0,31,0.00,CLR,,0.00,WeatherDisplay:10.37,2013-05-01 18:19:00,
2013-05-01 14:29:00,70.0,38.8,28.33,ENE,58,3.0,6.0,32,0.00,CLR,,0.00,WeatherDisplay:10.37,2013-05-01 18:29:00,
2013-05-01 14:39:00,70.3,39.1,28.33,NE,48,2.0,6.0,32,0.00,CLR,,0.00,WeatherDisplay:10.37,2013-05-01 18:39:00,
2013-05-01 14:49:00,70.3,39.1,28.36,ENE,59,5.0,6.0,32,0.00,CLR,,0.00,WeatherDisplay:10.37,2013-05-01 18:49:00,
2013-05-01 14:59:00,70.8,39.5,28.36,NE,53,3.0,5.0,32,0.00,CLR,,0.00,WeatherDisplay:10.37,2013-05-01 18:59:00,
2013-05-01 15:09:00,70.5,36.7,28.36,NNE,31,5.0,8.0,29,0.00,CLR,,0.00,WeatherDisplay:10.37,2013-05-01 19:09:00,
2013-05-01 15:19:00,70.5,40.0,28.36,NNE,30,2.0,8.0,33,0.00,CLR,,0.00,WeatherDisplay:10.37,2013-05-01 19:19:00,
2013-05-01 15:29:00,70.7,39.3,28.36,ENE,57,3.0,8.0,32,0.00,CLR,,0.00,WeatherDisplay:10.37,2013-05-01 19:29:00,
2013-05-01 15:39:00,70.3,36.6,28.36,NNE,32,6.0,8.0,29,0.00,CLR,,0.00,WeatherDisplay:10.37,2013-05-01 19:39:00,
2013-05-01 15:49:00,70.3,36.6,28.36,NE,52,3.0,8.0,29,0.00,CLR,,0.00,WeatherDisplay:10.37,2013-05-01 19:49:00,
2013-05-01 15:59:00,70.5,38.4,28.36,North,5,5.0,7.0,31,0.00,CLR,,0.00,WeatherDisplay:10.37,2013-05-01 19:59:00,
2013-05-01 16:09:00,70.5,38.4,28.36,NE,48,2.0,5.0,31,0.00,CLR,,0.00,WeatherDisplay:10.37,2013-05-01 20:09:00,
2013-05-01 16:19:00,70.2,37.3,28.36,NNE,33,2.0,6.0,30,0.00,CLR,,0.00,WeatherDisplay:10.37,2013-05-01 20:19:00,
2013-05-01 16:29:00,69.3,35.6,28.36,NE,51,5.0,7.0,29,0.00,CLR,,0.00,WeatherDisplay:10.37,2013-05-01 20:29:00,
2013-05-01 16:39:00,68.9,35.3,28.36,NNE,12,1.0,5.0,29,0.00,CLR,,0.00,WeatherDisplay:10.37,2013-05-01 20:39:00,
2013-05-01 16:49:00,69.6,36.8,28.36,ENE,74,2.0,5.0,30,0.00,CLR,,0.00,WeatherDisplay:10.37,2013-05-01 20:49:00,
2013-05-01 16:59:00,69.6,36.8,28.36,South,176,2.0,3.0,30,0.00,CLR,,0.00,WeatherDisplay:10.37,2013-05-01 20:59:00,
2013-05-01 17:09:00,71.1,37.2,28.36,East,79,1.0,6.0,29,0.00,CLR,,0.00,WeatherDisplay:10.37,2013-05-01 21:09:00,
2013-05-01 17:19:00,71.2,37.3,28.36,NE,51,3.0,6.0,29,0.00,CLR,,0.00,WeatherDisplay:10.37,2013-05-01 21:19:00,
2013-05-01 17:29:00,70.8,36.1,28.36,NE,47,3.0,5.0,28,0.00,CLR,,0.00,WeatherDisplay:10.37,2013-05-01 21:29:00,
2013-05-01 17:39:00,70.0,34.4,28.36,ENE,71,2.0,5.0,27,0.00,CLR,,0.00,WeatherDisplay:10.37,2013-05-01 21:39:00,
2013-05-01 17:49:00,70.1,34.6,28.36,East,83,1.0,4.0,27,0.00,CLR,,0.00,WeatherDisplay:10.37,2013-05-01 21:49:00,
2013-05-01 17:59:00,70.2,33.7,28.36,NE,36,2.0,5.0,26,0.00,CLR,,0.00,WeatherDisplay:10.37,2013-05-01 21:59:00,
2013-05-01 18:09:00,69.1,34.6,28.36,NE,37,1.0,3.0,28,0.00,CLR,,0.00,WeatherDisplay:10.37,2013-05-01 22:09:00,
2013-05-01 18:19:00,69.1,34.6,28.36,North,2,3.0,5.0,28,0.00,CLR,,0.00,WeatherDisplay:10.37,2013-05-01 22:19:00,
2013-05-01 18:29:00,69.1,34.6,28.36,North,353,0.0,2.0,28,0.00,CLR,,0.00,WeatherDisplay:10.37,2013-05-01 22:29:00,
2013-05-01 18:39:00,68.7,34.3,28.36,NE,46,3.0,5.0,28,0.00,CLR,,0.00,WeatherDisplay:10.37,2013-05-01 22:39:00,
2013-05-01 18:49:00,68.2,35.5,28.36,NE,36,3.0,6.0,30,0.00,CLR,,0.00,WeatherDisplay:10.37,2013-05-01 22:49:00,
2013-05-01 18:59:00,68.0,35.4,28.36,NE,35,1.0,3.0,30,0.00,CLR,,0.00,WeatherDisplay:10.37,2013-05-01 22:59:00,
2013-05-01 19:09:00,67.6,36.7,28.36,WNW,293,0.0,3.0,32,0.00,CLR,,0.00,WeatherDisplay:10.37,2013-05-01 23:09:00,
2013-05-01 19:19:00,67.1,37.0,28.36,WNW,284,1.0,3.0,33,0.00,CLR,,0.00,WeatherDisplay:10.37,2013-05-01 23:19:00,
2013-05-01 19:29:00,66.4,36.4,28.36,NE,56,0.0,3.0,33,0.00,CLR,,0.00,WeatherDisplay:10.37,2013-05-01 23:29:00,
2013-05-01 19:39:00,66.2,36.2,28.36,NW,316,1.0,3.0,33,0.00,CLR,,0.00,WeatherDisplay:10.37,2013-05-01 23:39:00,
2013-05-01 19:49:00,65.8,36.7,28.36,NNE,21,2.0,2.0,34,0.00,CLR,,0.00,WeatherDisplay:10.37,2013-05-01 23:49:00,
2013-05-01 19:59:00,65.1,37.5,28.36,NNE,21,2.0,3.0,36,0.00,CLR,,0.00,WeatherDisplay:10.37,2013-05-01 23:59:00,
2013-05-01 20:09:00,64.8,37.2,28.36,NE,42,2.0,6.0,36,0.00,CLR,,0.00,WeatherDisplay:10.37,2013-05-02 00:09:00,
2013-05-01 20:19:00,64.6,37.0,28.39,NE,55,1.0,3.0,36,0.00,CLR,,0.00,WeatherDisplay:10.37,2013-05-02 00:19:00,
2013-05-01 20:29:00,64.2,37.4,28.36,NNE,22,2.0,3.0,37,0.00,CLR,,0.00,WeatherDisplay:10.37,2013-05-02 00:29:00,
2013-05-01 20:39:00,63.7,36.9,28.36,NE,37,1.0,4.0,37,0.00,CLR,,0.00,WeatherDisplay:10.37,2013-05-02 00:39:00,
2013-05-01 20:49:00,63.5,36.7,28.39,NNE,26,1.0,2.0,37,0.00,CLR,,0.00,WeatherDisplay:10.37,2013-05-02 00:49:00,
2013-05-01 20:59:00,63.5,36.7,28.39,WNW,300,0.0,2.0,37,0.00,CLR,,0.00,WeatherDisplay:10.37,2013-05-02 00:59:00,
2013-05-01 21:09:00,63.0,38.3,28.39,SW,217,0.0,1.0,40,0.00,CLR,,0.00,WeatherDisplay:10.37,2013-05-02 01:09:00,
2013-05-01 21:19:00,62.8,37.4,28.39,SW,225,2.0,2.0,39,0.00,CLR,,0.00,WeatherDisplay:10.37,2013-05-02 01:19:00,
2013-05-01 21:29:00,62.8,37.4,28.39,North,9,2.0,3.0,39,0.00,CLR,,0.00,WeatherDisplay:10.37,2013-05-02 01:29:00,
2013-05-01 21:39:00,62.2,38.8,28.39,North,357,1.0,3.0,42,0.00,CLR,,0.00,WeatherDisplay:10.37,2013-05-02 01:39:00,
2013-05-01 21:49:00,61.9,37.9,28.39,NNE,30,1.0,3.0,41,0.00,CLR,,0.00,WeatherDisplay:10.37,2013-05-02 01:49:00,
2013-05-01 21:59:00,61.9,38.5,28.39,ESE,121,2.0,4.0,42,0.00,CLR,,0.00,WeatherDisplay:10.37,2013-05-02 01:59:00,
2013-05-01 22:09:00,61.5,38.8,28.39,NNE,30,1.0,4.0,43,0.00,CLR,,0.00,WeatherDisplay:10.37,2013-05-02 02:09:00,
2013-05-01 22:19:00,61.5,39.4,28.39,NNW,339,2.0,5.0,44,0.00,CLR,,0.00,WeatherDisplay:10.37,2013-05-02 02:19:00,
2013-05-01 22:29:00,61.5,39.4,28.39,NE,46,3.0,4.0,44,0.00,CLR,,0.00,WeatherDisplay:10.37,2013-05-02 02:29:00,
2013-05-01 22:39:00,61.5,39.4,28.39,NNW,343,2.0,6.0,44,0.00,CLR,,0.00,WeatherDisplay:10.37,2013-05-02 02:39:00,
2013-05-01 22:49:00,61.3,39.2,28.39,WNW,299,1.0,6.0,44,0.00,CLR,,0.00,WeatherDisplay:10.37,2013-05-02 02:49:00,
2013-05-01 22:59:00,61.3,39.2,28.36,ENE,59,3.0,5.0,44,0.00,CLR,,0.00,WeatherDisplay:10.37,2013-05-02 02:59:00,
2013-05-01 23:09:00,61.5,39.4,28.36,NE,41,3.0,6.0,44,0.00,CLR,,0.00,WeatherDisplay:10.37,2013-05-02 03:09:00,
2013-05-01 23:19:00,61.2,39.1,28.39,NE,50,2.0,3.0,44,0.00,CLR,,0.00,WeatherDisplay:10.37,2013-05-02 03:19:00,
2013-05-01 23:29:00,61.0,39.5,28.36,ENE,63,3.0,6.0,45,0.00,CLR,,0.00,WeatherDisplay:10.37,2013-05-02 03:29:00,
2013-05-01 23:39:00,60.6,39.7,28.36,NNE,23,5.0,6.0,46,0.00,CLR,,0.00,WeatherDisplay:10.37,2013-05-02 03:39:00,
2013-05-01 23:49:00,60.4,39.5,28.36,NE,56,3.0,3.0,46,0.00,CLR,,0.00,WeatherDisplay:10.37,2013-05-02 03:49:00,
2013-05-01 23:59:00,60.3,39.4,28.36,ENE,66,2.0,7.0,46,0.00,CLR,,0.00,WeatherDisplay:10.37,2013-05-02 03:59:00,